logo
Search for airport 
image banner adimage banner adimage banner ad
image banner ad

SEEM - Emsecor

Located in Quito, Ecuador

ICAO - , IATA -

Data provided by Airmate  

General information

Coordinates: S0°13'21" W78°22'41"
Elevation is 7992 feet MSL.
Magnetic variation is -4° East
View others Airports in Pichincha

Operational data

Special qualification required
Current time UTC:
Current local time:
Weather at : SEQM - Quito / Mariscal Sucre Intl ( 11 km )
METAR: SEQM 152200Z 36012KT 9999 FEW026TCU SCT030 BKN100 19/14 Q1022 NOSIG RMK A3019
TAF: SEQM 151630Z 1518/1618 36014KT 9999 SCT030 SCT100 TEMPO 1520/1523 SHRA FEW026TCU BKN030 BECMG 1523/1524 VRB03KT FEW005 BKN026 TEMPO 1603/1606 6000 BCFG BKN005 BECMG 1610/1612 VRB03KT SCT030 TX25/1519Z TN12/1611Z
View NOTAMs / SUP AIP / TFR affecting this airport [VIEW]
Communications frequencies: [VIEW]

Runways:

Airport contact information

Address: Quito Ecuador

Satellite view of SEEM